Time;durP1;ratioP1;P1;durP2;ratioP2;P2;SDS_P1;SDS_P2;PMS_P1;PMS_P2;Temp;Humidity;BMP_temperature;BMP_pressure;BME280_temperature;BME280_humidity;BME280_pressure;Samples;Min_cycle;Max_cycle;Signal;HPM_P1;HPM_P2
2022/07/18 00:01:30;;;;;;;5.13;1.90;;;;;23.30;102317.00;;;;5030860;28;20204;-78
2022/07/18 00:03:57;;;;;;;3.70;2.13;;;;;23.30;102311.00;;;;5036457;28;20283;-78
2022/07/18 00:06:25;;;;;;;3.83;2.13;;;;;23.20;102315.00;;;;5032356;28;20693;-78
2022/07/18 00:08:52;;;;;;;3.47;2.53;;;;;23.20;102322.00;;;;5050128;28;20198;-77
2022/07/18 00:11:21;;;;;;;3.10;2.05;;;;;23.10;102322.00;;;;5037572;28;20666;-78
2022/07/18 00:13:50;;;;;;;2.97;2.08;;;;;23.10;102316.00;;;;5030559;28;20205;-78
2022/07/18 00:16:18;;;;;;;4.90;2.42;;;;;23.10;102315.00;;;;5029496;28;20215;-78
2022/07/18 00:18:46;;;;;;;2.10;1.63;;;;;23.10;102309.00;;;;5030665;28;20228;-78
2022/07/18 00:21:13;;;;;;;3.15;2.28;;;;;23.10;102315.00;;;;5037278;28;20204;-78
2022/07/18 00:23:40;;;;;;;4.93;2.33;;;;;23.00;102309.00;;;;5041692;28;20200;-78
2022/07/18 00:26:08;;;;;;;2.78;1.95;;;;;23.00;102315.00;;;;5032094;28;20203;-78
2022/07/18 00:28:36;;;;;;;2.05;1.58;;;;;23.00;102303.00;;;;5038167;28;20223;-78
2022/07/18 00:31:04;;;;;;;3.45;2.30;;;;;23.00;102306.00;;;;5034014;28;20212;-78
2022/07/18 00:33:31;;;;;;;4.10;2.45;;;;;22.90;102304.00;;;;5034181;28;20215;-78
2022/07/18 00:35:59;;;;;;;3.25;2.25;;;;;22.90;102309.00;;;;5040986;28;20196;-78
2022/07/18 00:38:26;;;;;;;3.97;2.65;;;;;22.90;102301.00;;;;5028735;28;20235;-78
2022/07/18 00:40:53;;;;;;;3.00;2.30;;;;;22.90;102300.00;;;;5041118;28;20200;-78
2022/07/18 00:43:20;;;;;;;3.95;2.45;;;;;22.80;102294.00;;;;5029065;28;20199;-78
2022/07/18 00:45:52;;;;;;;3.53;2.25;;;;;22.80;102294.00;;;;5035056;28;20590;-78
2022/07/18 00:48:20;;;;;;;4.65;2.75;;;;;22.80;102294.00;;;;5033095;28;20207;-78
2022/07/18 00:50:47;;;;;;;3.50;1.90;;;;;22.80;102296.00;;;;5029106;28;20193;-77
2022/07/18 00:53:15;;;;;;;3.70;2.33;;;;;22.70;102294.00;;;;5028719;28;20201;-78
2022/07/18 00:55:44;;;;;;;4.10;2.38;;;;;22.70;102293.00;;;;5033841;28;20577;-78
2022/07/18 00:58:12;;;;;;;3.38;2.60;;;;;22.70;102289.00;;;;5029848;28;20220;-78
2022/07/18 01:03:29;;;;;;;3.72;2.58;;;;;22.60;102286.00;;;;5014974;28;20282;-77
2022/07/18 01:05:56;;;;;;;3.63;2.20;;;;;22.60;102282.00;;;;5035461;28;20192;-77
2022/07/18 01:08:23;;;;;;;3.70;2.17;;;;;22.60;102288.00;;;;5029444;28;21068;-77
2022/07/18 01:10:51;;;;;;;3.90;2.50;;;;;22.60;102286.00;;;;5035874;28;20207;-77
2022/07/18 01:13:18;;;;;;;3.58;2.38;;;;;22.50;102290.00;;;;5028727;28;20612;-77
2022/07/18 01:15:46;;;;;;;7.82;2.80;;;;;22.50;102284.00;;;;5029205;28;20211;-77
2022/07/18 01:18:13;;;;;;;2.83;2.17;;;;;22.50;102282.00;;;;5038152;28;20220;-78
2022/07/18 01:20:42;;;;;;;3.65;2.40;;;;;22.50;102284.00;;;;5033476;28;20196;-77
2022/07/18 01:23:09;;;;;;;3.20;2.05;;;;;22.40;102288.00;;;;5043730;28;20655;-78
2022/07/18 01:25:37;;;;;;;3.00;2.13;;;;;22.40;102280.00;;;;5038979;28;20218;-77
2022/07/18 01:28:04;;;;;;;3.35;2.13;;;;;22.40;102275.00;;;;5028068;28;20201;-77
2022/07/18 01:30:38;;;;;;;2.90;2.00;;;;;22.40;102274.00;;;;5030934;28;20250;-78
2022/07/18 01:33:05;;;;;;;3.63;2.55;;;;;22.40;102279.00;;;;5036398;28;20202;-78
2022/07/18 01:35:33;;;;;;;3.35;2.22;;;;;22.30;102279.00;;;;5034558;28;20253;-78
2022/07/18 01:38:03;;;;;;;3.95;2.25;;;;;22.30;102282.00;;;;5031928;28;20203;-77
2022/07/18 01:40:31;;;;;;;3.40;2.30;;;;;22.30;102278.00;;;;5030565;28;20197;-78
2022/07/18 01:42:58;;;;;;;3.13;2.00;;;;;22.30;102275.00;;;;5043820;28;20203;-77
2022/07/18 01:45:26;;;;;;;3.30;2.08;;;;;22.30;102271.00;;;;5034760;28;20252;-77
2022/07/18 01:47:53;;;;;;;4.05;1.90;;;;;22.20;102266.00;;;;5039967;28;20196;-77
2022/07/18 01:50:21;;;;;;;3.45;2.13;;;;;22.20;102257.00;;;;5033274;28;20196;-78
2022/07/18 01:52:48;;;;;;;2.95;1.90;;;;;22.20;102257.00;;;;5042254;28;20199;-77
2022/07/18 01:55:17;;;;;;;3.75;2.00;;;;;22.20;102239.00;;;;5032314;28;20196;-77
2022/07/18 01:57:44;;;;;;;3.40;2.20;;;;;22.20;102247.00;;;;5030143;28;20709;-77
2022/07/18 02:00:12;;;;;;;5.13;2.15;;;;;22.10;102253.00;;;;5032508;28;20227;-77
2022/07/18 02:02:40;;;;;;;3.13;2.08;;;;;22.10;102253.00;;;;5037351;28;20192;-77
2022/07/18 02:05:08;;;;;;;3.22;2.05;;;;;22.10;102257.00;;;;5027848;28;20192;-77
2022/07/18 02:07:38;;;;;;;2.65;2.20;;;;;22.10;102260.00;;;;5038751;28;20697;-77
2022/07/18 02:10:08;;;;;;;5.55;2.33;;;;;22.10;102259.00;;;;5038580;28;20215;-78
2022/07/18 02:12:37;;;;;;;2.92;2.47;;;;;22.00;102259.00;;;;5040431;28;20195;-77
2022/07/18 02:15:06;;;;;;;3.30;1.77;;;;;22.00;102258.00;;;;5035043;28;20206;-77
2022/07/18 02:17:34;;;;;;;2.47;1.80;;;;;22.00;102252.00;;;;5034032;28;20682;-77
2022/07/18 02:20:01;;;;;;;2.92;1.90;;;;;22.00;102252.00;;;;5036052;28;20231;-76
2022/07/18 02:22:29;;;;;;;3.83;2.40;;;;;22.00;102249.00;;;;5035340;28;20198;-77
2022/07/18 02:24:56;;;;;;;2.45;1.88;;;;;22.00;102240.00;;;;5027949;28;20192;-77
2022/07/18 02:27:23;;;;;;;3.45;2.35;;;;;22.00;102241.00;;;;5026989;28;20200;-77
2022/07/18 02:29:52;;;;;;;2.58;1.85;;;;;21.90;102240.00;;;;5035886;28;20193;-77
2022/07/18 02:32:20;;;;;;;4.10;2.78;;;;;22.00;102235.00;;;;5031750;28;20291;-77
2022/07/18 02:34:47;;;;;;;3.65;2.28;;;;;22.00;102226.00;;;;5034869;28;20572;-77
2022/07/18 02:37:15;;;;;;;3.53;2.30;;;;;21.90;102229.00;;;;5042976;28;20207;-77
2022/07/18 02:39:42;;;;;;;2.67;1.73;;;;;21.90;102233.00;;;;5037291;28;20710;-77
2022/07/18 02:42:10;;;;;;;2.13;1.60;;;;;21.90;102234.00;;;;5027053;28;20208;-77
2022/07/18 02:44:37;;;;;;;3.80;1.85;;;;;21.90;102234.00;;;;5026737;28;20270;-77
2022/07/18 02:47:06;;;;;;;2.70;1.98;;;;;21.90;102236.00;;;;5036296;28;20314;-77
2022/07/18 02:49:33;;;;;;;3.47;2.05;;;;;21.90;102236.00;;;;5029016;28;20203;-77
2022/07/18 02:52:02;;;;;;;2.53;1.63;;;;;21.90;102236.00;;;;5039705;28;20678;-77
2022/07/18 02:54:30;;;;;;;2.88;1.95;;;;;21.90;102230.00;;;;5046769;28;20211;-77
2022/07/18 02:56:58;;;;;;;2.90;1.85;;;;;21.80;102230.00;;;;5037416;28;20231;-77
2022/07/18 02:59:28;;;;;;;4.38;1.80;;;;;21.80;102229.00;;;;5030500;28;20871;-77
2022/07/18 03:01:56;;;;;;;3.17;1.73;;;;;21.80;102232.00;;;;5037287;28;20187;-77
2022/07/18 03:04:25;;;;;;;5.05;2.15;;;;;21.80;102230.00;;;;5047783;28;20188;-77
2022/07/18 03:06:53;;;;;;;1.90;1.40;;;;;21.80;102220.00;;;;5034571;28;20208;-77
2022/07/18 03:09:20;;;;;;;2.10;1.60;;;;;21.80;102225.00;;;;5030762;28;20211;-77
2022/07/18 03:11:48;;;;;;;1.98;1.52;;;;;21.70;102226.00;;;;5034013;28;20204;-77
2022/07/18 03:14:16;;;;;;;3.05;1.50;;;;;21.70;102228.00;;;;5032059;28;20281;-77
2022/07/18 03:16:43;;;;;;;2.17;1.20;;;;;21.70;102221.00;;;;5044945;28;20677;-77
2022/07/18 03:19:10;;;;;;;3.20;1.80;;;;;21.70;102222.00;;;;5030391;28;20307;-77
2022/07/18 03:21:39;;;;;;;3.17;1.92;;;;;21.70;102219.00;;;;5038920;28;20474;-77
2022/07/18 03:24:06;;;;;;;1.83;1.52;;;;;21.70;102211.00;;;;5033345;28;20697;-77
2022/07/18 03:26:34;;;;;;;3.17;1.55;;;;;21.70;102212.00;;;;5030505;28;20208;-77
2022/07/18 03:29:01;;;;;;;3.25;1.73;;;;;21.70;102206.00;;;;5031463;28;20201;-77
2022/07/18 03:31:28;;;;;;;2.00;1.50;;;;;21.70;102209.00;;;;5029587;28;20200;-77
2022/07/18 03:33:56;;;;;;;2.50;2.08;;;;;21.70;102205.00;;;;5036003;28;20203;-77
2022/07/18 03:36:23;;;;;;;3.13;1.85;;;;;21.70;102198.00;;;;5044448;28;20195;-77
2022/07/18 03:38:52;;;;;;;2.40;1.70;;;;;21.60;102191.00;;;;5038188;28;20193;-77
2022/07/18 03:41:19;;;;;;;3.65;1.73;;;;;21.60;102191.00;;;;5030946;28;20204;-77
2022/07/18 03:43:46;;;;;;;3.05;1.60;;;;;21.60;102185.00;;;;5036540;28;20204;-77
2022/07/18 03:46:14;;;;;;;5.03;1.67;;;;;21.60;102187.00;;;;5044070;28;20212;-77
2022/07/18 03:48:41;;;;;;;2.88;1.50;;;;;21.60;102183.00;;;;5039337;28;20200;-77
2022/07/18 03:51:08;;;;;;;1.60;1.50;;;;;21.60;102185.00;;;;5029768;28;20594;-77
2022/07/18 03:53:38;;;;;;;2.50;1.65;;;;;21.60;102182.00;;;;5034178;28;20192;-77
2022/07/18 03:56:08;;;;;;;3.13;1.60;;;;;21.60;102192.00;;;;5029404;28;20243;-77
2022/07/18 03:58:35;;;;;;;2.25;1.25;;;;;21.60;102185.00;;;;5033313;28;20203;-77
2022/07/18 04:01:03;;;;;;;3.85;1.60;;;;;21.60;102181.00;;;;5035357;28;20706;-77
2022/07/18 04:03:30;;;;;;;2.95;1.77;;;;;21.60;102180.00;;;;5032549;28;20207;-77
2022/07/18 04:05:57;;;;;;;4.55;1.70;;;;;21.60;102175.00;;;;5032939;28;20208;-77
2022/07/18 04:08:25;;;;;;;3.17;1.70;;;;;21.60;102170.00;;;;5029494;28;20196;-77
2022/07/18 04:10:52;;;;;;;1.88;1.20;;;;;21.60;102166.00;;;;5029364;28;20208;-77
2022/07/18 04:13:22;;;;;;;2.30;1.63;;;;;21.60;102171.00;;;;5039410;28;20199;-77
2022/07/18 04:15:50;;;;;;;2.28;1.48;;;;;21.60;102166.00;;;;5034755;28;20199;-77
2022/07/18 04:18:17;;;;;;;3.72;1.75;;;;;21.60;102165.00;;;;5033568;28;20204;-77
2022/07/18 04:20:44;;;;;;;2.38;1.35;;;;;21.60;102171.00;;;;5046017;28;20231;-77
2022/07/18 04:23:12;;;;;;;1.58;1.20;;;;;21.60;102170.00;;;;5047819;28;20215;-77
2022/07/18 04:25:40;;;;;;;2.72;1.65;;;;;21.70;102176.00;;;;5046289;28;20200;-77
2022/07/18 04:28:10;;;;;;;2.95;1.58;;;;;21.70;102171.00;;;;5031606;28;20195;-77
2022/07/18 04:30:40;;;;;;;3.38;1.45;;;;;21.70;102170.00;;;;5047571;28;20205;-77
2022/07/18 04:33:10;;;;;;;1.80;1.35;;;;;21.70;102160.00;;;;5028841;28;20196;-77
2022/07/18 04:35:38;;;;;;;2.85;1.40;;;;;21.70;102163.00;;;;5031371;28;20200;-77
2022/07/18 04:38:07;;;;;;;3.33;1.25;;;;;21.80;102168.00;;;;5049014;28;20286;-77
2022/07/18 04:40:34;;;;;;;2.55;1.80;;;;;21.80;102167.00;;;;5048884;28;20231;-77
2022/07/18 04:43:02;;;;;;;3.00;1.35;;;;;21.80;102164.00;;;;5030026;28;20223;-77
2022/07/18 04:45:29;;;;;;;3.35;1.08;;;;;21.90;102163.00;;;;5049333;28;20223;-77
2022/07/18 04:47:58;;;;;;;2.35;1.67;;;;;21.90;102162.00;;;;5037479;28;20207;-77
2022/07/18 04:50:26;;;;;;;1.67;0.98;;;;;21.90;102165.00;;;;5042227;28;20196;-77
2022/07/18 04:52:53;;;;;;;4.22;1.40;;;;;22.00;102160.00;;;;5045902;28;20203;-77
2022/07/18 04:55:23;;;;;;;3.60;1.80;;;;;22.00;102156.00;;;;5048675;28;20191;-77
2022/07/18 04:57:51;;;;;;;3.00;1.73;;;;;22.10;102153.00;;;;5035936;28;20226;-77
2022/07/18 05:00:20;;;;;;;2.25;1.60;;;;;22.10;102161.00;;;;5040467;28;20232;-77
2022/07/18 05:02:49;;;;;;;1.45;1.30;;;;;22.20;102165.00;;;;5028647;28;20203;-77
2022/07/18 05:05:19;;;;;;;3.05;1.40;;;;;22.20;102165.00;;;;5037625;28;20559;-77
2022/07/18 05:07:47;;;;;;;4.40;1.50;;;;;22.30;102172.00;;;;5033721;28;20203;-77
2022/07/18 05:10:16;;;;;;;1.88;1.52;;;;;22.30;102177.00;;;;5034957;28;20192;-77
2022/07/18 05:12:45;;;;;;;2.38;1.42;;;;;22.40;102170.00;;;;5037093;28;20205;-77
2022/07/18 05:15:14;;;;;;;1.80;1.10;;;;;22.50;102170.00;;;;5038495;28;20195;-77
2022/07/18 05:17:42;;;;;;;2.22;1.42;;;;;22.50;102172.00;;;;5035381;28;20202;-77
2022/07/18 05:20:12;;;;;;;4.85;1.85;;;;;22.60;102171.00;;;;5037164;28;20222;-77
2022/07/18 05:22:41;;;;;;;3.13;1.58;;;;;22.70;102167.00;;;;5037286;28;20192;-77
2022/07/18 05:25:11;;;;;;;4.40;1.58;;;;;22.80;102175.00;;;;5036369;28;20211;-77
2022/07/18 05:27:38;;;;;;;1.77;1.40;;;;;22.90;102169.00;;;;5029710;28;20188;-77
2022/07/18 05:30:09;;;;;;;2.47;1.50;;;;;22.90;102177.00;;;;5034983;28;20192;-77
2022/07/18 05:32:37;;;;;;;2.70;1.70;;;;;23.10;102185.00;;;;5027970;28;20204;-77
2022/07/18 05:35:05;;;;;;;2.67;1.90;;;;;23.10;102183.00;;;;5028323;28;20207;-77
2022/07/18 05:37:32;;;;;;;5.20;2.03;;;;;23.20;102181.00;;;;5043131;28;20199;-77
2022/07/18 05:40:01;;;;;;;3.58;1.90;;;;;23.30;102178.00;;;;5032992;28;20258;-77
2022/07/18 05:42:28;;;;;;;2.50;1.40;;;;;23.40;102178.00;;;;5027880;28;20295;-77
2022/07/18 05:44:55;;;;;;;3.30;1.80;;;;;23.50;102175.00;;;;5028398;28;20581;-77
2022/07/18 05:47:23;;;;;;;5.10;1.95;;;;;23.60;102170.00;;;;5027627;28;20207;-77
2022/07/18 05:49:50;;;;;;;4.00;2.15;;;;;23.60;102169.00;;;;5037316;28;20195;-77
2022/07/18 05:52:17;;;;;;;4.40;1.55;;;;;23.80;102176.00;;;;5033916;28;20207;-77
2022/07/18 05:54:45;;;;;;;2.58;1.85;;;;;23.80;102175.00;;;;5031701;28;20191;-78
2022/07/18 05:57:13;;;;;;;2.35;1.77;;;;;23.90;102167.00;;;;5034512;28;20796;-79
2022/07/18 05:59:41;;;;;;;3.75;2.60;;;;;24.00;102163.00;;;;5035493;28;20603;-78
2022/07/18 06:02:08;;;;;;;3.72;1.90;;;;;24.10;102164.00;;;;5029972;28;20552;-77
2022/07/18 06:04:36;;;;;;;3.05;1.85;;;;;24.20;102152.00;;;;5032368;28;20299;-78
2022/07/18 06:07:03;;;;;;;2.90;2.10;;;;;24.30;102146.00;;;;5027797;28;20192;-78
2022/07/18 06:09:31;;;;;;;4.28;2.15;;;;;24.40;102136.00;;;;5033620;28;20196;-78
2022/07/18 06:12:00;;;;;;;2.53;1.75;;;;;24.50;102135.00;;;;5035498;28;20258;-78
2022/07/18 06:14:29;;;;;;;3.78;1.90;;;;;24.60;102138.00;;;;5032435;28;20216;-78
2022/07/18 06:16:58;;;;;;;2.92;1.83;;;;;24.60;102139.00;;;;5037296;28;20207;-79
2022/07/18 06:19:25;;;;;;;3.42;2.40;;;;;24.80;102147.00;;;;5024904;28;20564;-78
2022/07/18 06:21:53;;;;;;;4.63;2.08;;;;;24.90;102144.00;;;;5035404;28;21313;-77
2022/07/18 06:24:20;;;;;;;4.20;1.83;;;;;24.90;102144.00;;;;5036232;28;20188;-78
2022/07/18 06:26:49;;;;;;;3.25;2.08;;;;;25.00;102143.00;;;;5037504;28;20216;-78
2022/07/18 06:29:16;;;;;;;3.67;2.20;;;;;25.10;102151.00;;;;5037483;28;20279;-78
2022/07/18 06:31:45;;;;;;;5.38;2.53;;;;;25.20;102150.00;;;;5037918;28;20206;-79
2022/07/18 06:34:13;;;;;;;3.85;2.10;;;;;25.30;102149.00;;;;5040563;28;20196;-78
2022/07/18 06:36:40;;;;;;;5.43;2.05;;;;;25.40;102155.00;;;;5032696;28;20639;-77
2022/07/18 06:39:10;;;;;;;4.28;2.45;;;;;25.60;102150.00;;;;5045514;28;20287;-80
2022/07/18 06:41:39;;;;;;;4.03;1.92;;;;;25.70;102152.00;;;;5040661;28;20302;-79
2022/07/18 06:44:06;;;;;;;4.50;2.42;;;;;25.70;102153.00;;;;5041335;28;20619;-80
2022/07/18 06:46:34;;;;;;;3.33;2.20;;;;;25.80;102152.00;;;;5034253;28;20229;-78
2022/07/18 06:49:03;;;;;;;4.45;2.55;;;;;25.90;102154.00;;;;5040433;28;20215;-79
2022/07/18 06:51:30;;;;;;;4.25;2.60;;;;;26.00;102154.00;;;;5035972;28;20207;-78
2022/07/18 06:53:58;;;;;;;3.42;2.25;;;;;26.10;102158.00;;;;5037088;28;20231;-79
2022/07/18 06:56:26;;;;;;;3.22;2.70;;;;;26.20;102163.00;;;;5034170;28;20236;-78
2022/07/18 06:58:53;;;;;;;7.82;3.08;;;;;26.30;102166.00;;;;5034703;28;20224;-78
2022/07/18 07:01:22;;;;;;;5.50;2.80;;;;;26.40;102159.00;;;;5043527;28;20469;-79
2022/07/18 07:03:55;;;;;;;4.63;2.42;;;;;26.50;102160.00;;;;5039589;28;20219;-78
2022/07/18 07:06:23;;;;;;;4.57;2.67;;;;;26.60;102154.00;;;;5033865;28;20192;-79
2022/07/18 07:08:51;;;;;;;4.07;2.65;;;;;26.70;102153.00;;;;5037116;28;20204;-78
2022/07/18 07:11:18;;;;;;;5.10;2.50;;;;;26.80;102154.00;;;;5035756;28;20203;-79
2022/07/18 07:13:46;;;;;;;26.98;3.30;;;;;26.90;102139.00;;;;5037153;28;20718;-78
2022/07/18 07:16:16;;;;;;;6.72;2.72;;;;;27.00;102135.00;;;;5045958;28;20198;-77
2022/07/18 07:18:43;;;;;;;7.93;2.80;;;;;27.10;102126.00;;;;5034963;28;20192;-79
2022/07/18 07:21:11;;;;;;;5.18;3.10;;;;;27.30;102132.00;;;;5036662;28;20220;-78
2022/07/18 07:23:40;;;;;;;3.17;2.47;;;;;27.30;102137.00;;;;5040458;28;20199;-79
2022/07/18 07:26:08;;;;;;;6.40;3.20;;;;;27.50;102139.00;;;;5036676;28;20197;-79
2022/07/18 07:28:35;;;;;;;4.45;3.15;;;;;27.50;102137.00;;;;5038560;28;20200;-78
2022/07/18 07:31:03;;;;;;;4.72;2.55;;;;;27.60;102132.00;;;;5038357;28;20947;-77
2022/07/18 07:33:30;;;;;;;4.13;2.90;;;;;27.70;102133.00;;;;5036468;28;20218;-78
2022/07/18 07:35:57;;;;;;;5.60;3.00;;;;;27.80;102135.00;;;;5036651;28;20204;-79
2022/07/18 07:38:28;;;;;;;7.60;2.80;;;;;28.00;102145.00;;;;5038468;28;20204;-78
2022/07/18 07:41:01;;;;;;;4.88;2.72;;;;;28.10;102144.00;;;;5040601;28;20302;-78
2022/07/18 07:43:28;;;;;;;3.45;2.17;;;;;28.20;102142.00;;;;5034533;28;20195;-78
2022/07/18 07:45:56;;;;;;;7.00;2.90;;;;;28.40;102140.00;;;;5034916;28;20213;-79
2022/07/18 07:48:24;;;;;;;4.35;2.53;;;;;28.50;102136.00;;;;5039666;28;20199;-79
2022/07/18 07:50:51;;;;;;;5.15;2.20;;;;;28.60;102139.00;;;;5038693;28;20205;-79
2022/07/18 07:53:19;;;;;;;3.08;2.08;;;;;28.70;102140.00;;;;5037268;28;20200;-81
2022/07/18 07:55:46;;;;;;;4.18;2.50;;;;;28.80;102138.00;;;;5041433;28;20191;-79
2022/07/18 07:58:15;;;;;;;4.43;2.50;;;;;29.00;102150.00;;;;5037458;28;20196;-79
2022/07/18 08:00:42;;;;;;;3.50;2.70;;;;;29.00;102152.00;;;;5034356;28;20235;-79
2022/07/18 08:03:10;;;;;;;2.78;2.28;;;;;29.10;102148.00;;;;5035283;28;20288;-79
2022/07/18 08:05:39;;;;;;;4.65;2.03;;;;;29.30;102145.00;;;;5032872;28;20200;-79
2022/07/18 08:08:07;;;;;;;3.05;1.92;;;;;29.40;102143.00;;;;5038930;28;20281;-80
2022/07/18 08:10:35;;;;;;;4.65;1.70;;;;;29.50;102145.00;;;;5039557;28;20192;-79
2022/07/18 08:13:02;;;;;;;3.75;1.95;;;;;29.70;102143.00;;;;5042517;28;20195;-78
2022/07/18 08:15:31;;;;;;;5.18;1.98;;;;;29.80;102141.00;;;;5034613;28;20223;-78
2022/07/18 08:17:59;;;;;;;4.35;2.22;;;;;29.90;102142.00;;;;5037046;28;20201;-78
2022/07/18 08:20:26;;;;;;;6.57;2.47;;;;;30.00;102142.00;;;;5035363;28;20216;-79
2022/07/18 08:22:59;;;;;;;4.05;1.92;;;;;30.10;102134.00;;;;5037188;28;20203;-79
2022/07/18 08:25:29;;;;;;;3.60;2.17;;;;;30.20;102128.00;;;;5028750;28;20208;-78
2022/07/18 08:27:56;;;;;;;5.00;2.10;;;;;30.30;102135.00;;;;5036271;28;20200;-78
2022/07/18 08:30:24;;;;;;;5.30;2.28;;;;;30.40;102129.00;;;;5034449;28;20730;-79
2022/07/18 08:32:52;;;;;;;3.25;2.33;;;;;30.50;102131.00;;;;5035986;28;20200;-79
2022/07/18 08:35:20;;;;;;;6.40;2.28;;;;;30.70;102132.00;;;;5038987;28;20195;-79
2022/07/18 08:37:47;;;;;;;3.97;2.53;;;;;30.80;102131.00;;;;5046073;28;20200;-77
2022/07/18 08:40:15;;;;;;;3.55;2.92;;;;;30.90;102132.00;;;;5044408;28;20204;-77
2022/07/18 08:42:43;;;;;;;3.67;2.28;;;;;31.00;102142.00;;;;5036400;28;20204;-79
2022/07/18 08:45:11;;;;;;;4.93;2.40;;;;;31.10;102139.00;;;;5028977;28;20235;-79
2022/07/18 08:47:38;;;;;;;3.83;2.15;;;;;31.20;102136.00;;;;5028692;28;20679;-79
2022/07/18 08:50:08;;;;;;;4.00;2.38;;;;;31.30;102136.00;;;;5045694;28;20210;-79
2022/07/18 08:52:37;;;;;;;3.58;2.72;;;;;31.50;102136.00;;;;5034328;28;20195;-79
2022/07/18 08:55:06;;;;;;;5.18;3.15;;;;;31.60;102135.00;;;;5032544;28;20357;-76
2022/07/18 08:57:34;;;;;;;3.22;2.45;;;;;31.70;102140.00;;;;5038744;28;20746;-77
2022/07/18 09:00:02;;;;;;;3.63;2.33;;;;;31.90;102149.00;;;;5031810;28;20230;-77
2022/07/18 09:02:30;;;;;;;6.05;2.80;;;;;32.00;102141.00;;;;5047205;28;20999;-78
2022/07/18 09:05:00;;;;;;;5.25;2.42;;;;;32.10;102145.00;;;;5044693;28;20207;-78
2022/07/18 09:07:30;;;;;;;3.45;2.10;;;;;32.20;102148.00;;;;5040690;28;20195;-76
2022/07/18 09:09:59;;;;;;;4.85;2.10;;;;;32.40;102145.00;;;;5048823;28;20206;-78
2022/07/18 09:12:28;;;;;;;2.22;1.92;;;;;32.50;102143.00;;;;5031333;28;20210;-78
2022/07/18 09:14:55;;;;;;;3.90;2.17;;;;;32.60;102132.00;;;;5047396;28;20199;-77
2022/07/18 09:17:25;;;;;;;3.08;2.03;;;;;32.70;102137.00;;;;5031916;28;20203;-76
2022/07/18 09:20:00;;;;;;;4.40;2.30;;;;;32.70;102139.00;;;;5046414;28;20215;-75
2022/07/18 09:22:30;;;;;;;2.00;1.65;;;;;32.80;102138.00;;;;5040172;28;20223;-75
2022/07/18 09:25:06;;;;;;;5.82;2.05;;;;;32.80;102134.00;;;;5040104;28;20214;-75
2022/07/18 09:27:38;;;;;;;2.33;1.80;;;;;32.80;102145.00;;;;5030102;28;20657;-75
2022/07/18 09:30:25;;;;;;;5.50;2.13;;;;;32.70;102140.00;;;;5032225;28;20717;-75
2022/07/18 09:32:55;;;;;;;2.10;1.70;;;;;32.70;102141.00;;;;5026440;28;20211;-75
2022/07/18 09:35:26;;;;;;;5.90;2.20;;;;;32.70;102133.00;;;;5042356;28;20212;-75
2022/07/18 09:38:00;;;;;;;2.45;2.13;;;;;32.70;102136.00;;;;5037433;28;20202;-75
2022/07/18 09:40:30;;;;;;;2.97;2.00;;;;;32.70;102135.00;;;;5037027;28;20199;-76
2022/07/18 09:43:00;;;;;;;2.75;2.20;;;;;32.70;102126.00;;;;5033383;28;20192;-75
2022/07/18 09:45:30;;;;;;;4.35;2.47;;;;;32.80;102128.00;;;;5033328;28;20215;-76
2022/07/18 09:47:59;;;;;;;5.13;2.42;;;;;32.90;102127.00;;;;5043765;28;20195;-76
2022/07/18 09:50:33;;;;;;;4.40;2.63;;;;;33.00;102129.00;;;;5036200;28;20206;-75
2022/07/18 09:53:05;;;;;;;2.55;1.75;;;;;33.10;102118.00;;;;5042439;28;20214;-75
2022/07/18 09:55:32;;;;;;;4.10;2.50;;;;;33.20;102131.00;;;;5029508;28;20199;-76
2022/07/18 09:58:02;;;;;;;3.97;2.60;;;;;33.20;102131.00;;;;5045720;28;20744;-76
2022/07/18 10:00:31;;;;;;;3.15;2.08;;;;;33.20;102128.00;;;;5051359;28;20230;-76
2022/07/18 10:03:00;;;;;;;3.85;2.05;;;;;33.20;102122.00;;;;5041729;28;20229;-75
2022/07/18 10:05:29;;;;;;;2.53;1.75;;;;;33.10;102119.00;;;;5048573;28;20868;-75
2022/07/18 10:07:57;;;;;;;5.05;2.40;;;;;33.10;102120.00;;;;5049742;28;20211;-75
2022/07/18 10:10:27;;;;;;;2.80;2.17;;;;;33.20;102120.00;;;;5050990;28;20199;-76
2022/07/18 10:12:57;;;;;;;4.40;1.92;;;;;33.30;102119.00;;;;5047252;28;20746;-76
2022/07/18 10:15:26;;;;;;;3.05;2.03;;;;;33.40;102113.00;;;;5042555;28;20203;-76
2022/07/18 10:17:53;;;;;;;3.58;1.95;;;;;33.50;102107.00;;;;5050508;28;20199;-76
2022/07/18 10:20:31;;;;;;;2.47;1.92;;;;;33.60;102113.00;;;;5039481;28;20199;-76
2022/07/18 10:23:05;;;;;;;3.38;2.42;;;;;33.80;102115.00;;;;5045757;28;20203;-76
2022/07/18 10:25:34;;;;;;;4.97;1.63;;;;;33.90;102128.00;;;;5046281;28;20208;-76
2022/07/18 10:28:10;;;;;;;4.25;1.65;;;;;34.00;102120.00;;;;5043504;28;20253;-76
2022/07/18 10:30:45;;;;;;;2.55;1.52;;;;;34.10;102118.00;;;;5042449;28;20222;-76
2022/07/18 10:33:37;;;;;;;2.22;1.67;;;;;34.10;102111.00;;;;5032650;28;20203;-76
2022/07/18 10:36:06;;;;;;;8.88;1.60;;;;;34.30;102119.00;;;;5050764;28;20286;-76
2022/07/18 10:38:34;;;;;;;2.35;1.55;;;;;34.40;102121.00;;;;5034005;28;20650;-76
2022/07/18 10:41:08;;;;;;;2.55;1.33;;;;;34.50;102126.00;;;;5046100;28;20199;-76
2022/07/18 10:43:39;;;;;;;2.28;1.30;;;;;34.60;102121.00;;;;5041665;28;20194;-76
2022/07/18 10:46:08;;;;;;;1.92;1.63;;;;;34.70;102118.00;;;;5051463;28;20228;-76
2022/07/18 10:48:55;;;;;;;2.78;1.05;;;;;34.70;102113.00;;;;5046209;28;20282;-76
2022/07/18 10:51:31;;;;;;;1.60;1.20;;;;;34.80;102117.00;;;;5050351;28;20214;-76
2022/07/18 10:54:10;;;;;;;1.75;1.10;;;;;34.80;102114.00;;;;5044263;28;20203;-75
2022/07/18 10:57:10;;;;;;;2.58;1.50;;;;;34.90;102114.00;;;;5037968;28;20313;-76
2022/07/18 10:59:39;;;;;;;2.45;1.60;;;;;35.00;102111.00;;;;5034643;28;20290;-78
2022/07/18 11:02:08;;;;;;;1.70;1.60;;;;;35.10;102118.00;;;;5030252;28;20216;-78
2022/07/18 11:04:40;;;;;;;2.80;1.60;;;;;35.10;102119.00;;;;5034126;28;20199;-78
2022/07/18 11:07:13;;;;;;;2.33;1.48;;;;;35.20;102112.00;;;;5034664;28;20210;-78
2022/07/18 11:09:43;;;;;;;1.77;1.27;;;;;35.30;102115.00;;;;5037709;28;20289;-78
2022/07/18 11:12:33;;;;;;;1.40;1.30;;;;;35.20;102109.00;;;;5033862;28;20196;-79
2022/07/18 11:15:10;;;;;;;1.90;1.52;;;;;35.30;102107.00;;;;5027628;28;20283;-79
2022/07/18 11:18:04;;;;;;;4.30;1.40;;;;;35.30;102110.00;;;;5030137;28;20208;-79
2022/07/18 11:20:42;;;;;;;2.78;1.25;;;;;35.30;102099.00;;;;5041248;28;20220;-76
2022/07/18 11:23:19;;;;;;;1.80;1.30;;;;;35.40;102099.00;;;;5038681;28;20330;-76
2022/07/18 11:25:47;;;;;;;1.83;1.15;;;;;35.50;102102.00;;;;5039284;28;20230;-76
2022/07/18 11:28:16;;;;;;;1.30;1.10;;;;;35.60;102096.00;;;;5039931;28;21033;-75
2022/07/18 11:30:44;;;;;;;1.92;1.15;;;;;35.60;102097.00;;;;5037771;28;20574;-76
2022/07/18 11:33:25;;;;;;;2.03;1.20;;;;;35.60;102087.00;;;;5055152;28;20213;-75
2022/07/18 11:36:02;;;;;;;3.35;1.20;;;;;35.70;102090.00;;;;5050595;28;20210;-75
2022/07/18 11:38:29;;;;;;;3.03;1.23;;;;;35.80;102090.00;;;;5038167;28;20289;-75
2022/07/18 11:40:57;;;;;;;1.35;1.17;;;;;35.80;102089.00;;;;5037868;28;20199;-76
2022/07/18 11:43:27;;;;;;;1.30;1.20;;;;;35.80;102085.00;;;;5033804;28;20223;-76
2022/07/18 11:46:05;;;;;;;4.13;1.45;;;;;35.80;102084.00;;;;5043982;28;20234;-76
2022/07/18 11:48:33;;;;;;;1.73;1.38;;;;;35.80;102083.00;;;;5049658;28;20211;-77
2022/07/18 11:51:00;;;;;;;1.27;1.00;;;;;35.80;102076.00;;;;5040328;28;20207;-76
2022/07/18 11:53:28;;;;;;;1.92;1.20;;;;;35.90;102083.00;;;;5037952;28;20211;-75
2022/07/18 11:55:56;;;;;;;2.53;1.52;;;;;35.90;102078.00;;;;5044332;28;20210;-76
2022/07/18 11:58:25;;;;;;;1.77;1.25;;;;;35.90;102073.00;;;;5036273;28;20203;-77
2022/07/18 12:00:59;;;;;;;1.23;1.10;;;;;36.00;102080.00;;;;5036518;28;20204;-76
2022/07/18 12:03:28;;;;;;;3.50;1.38;;;;;36.00;102080.00;;;;5048562;28;20234;-78
2022/07/18 12:05:56;;;;;;;2.17;1.30;;;;;36.00;102073.00;;;;5040035;28;20307;-77
2022/07/18 12:08:28;;;;;;;1.52;1.13;;;;;36.00;102059.00;;;;5038825;28;20203;-75
2022/07/18 12:11:10;;;;;;;2.15;1.38;;;;;36.00;102066.00;;;;5043189;28;20195;-75
2022/07/18 12:13:54;;;;;;;1.83;1.27;;;;;36.00;102061.00;;;;5041223;28;20743;-75
2022/07/18 12:16:33;;;;;;;0.93;0.77;;;;;36.10;102068.00;;;;5049587;28;20209;-76
2022/07/18 12:19:07;;;;;;;3.80;1.23;;;;;36.20;102064.00;;;;5050032;28;20203;-75
2022/07/18 12:21:51;;;;;;;1.30;1.20;;;;;36.10;102066.00;;;;5050966;28;20206;-76